AXM104 ZPPP-WMKK
Flight info
| Callsign | AXM104 |
|---|---|
| Flight time | 3h 22m |
| Altitude | 38100 |
| Route | ELA9X ELASU A581 BIDRU/K0837S1130 A581 SAGAG/N0452F380 B218 LPB B346 BKK/N0449F390 M757 KARMI Y507 KAKAK KAKAK2J |
| Aircraft | A20N/M-SDE2E3FGHIRWXY/LB1 |
Departure
| Time | 2026-05-08 14:11 |
|---|---|
| Airport | Kunming Changshui International Airport (ZPPP) |
Arrival
| Time | 2026-05-08 17:33 |
|---|---|
| Airport | Kuala Lumpur International Airport (WMKK) |
| Time | Latitude | Longitude | Altitude | Speed | Heading |
|---|---|---|---|---|---|
| 2026-05-08 13:16 | 25.10195 | 102.92309 | 6906 ft | 0 kts | 38° |
| 2026-05-08 14:02 | 25.10189 | 102.92303 | 6923 ft | 3 kts | 38° |
| 2026-05-08 14:02 | 25.10173 | 102.92290 | 6911 ft | 3 kts | 33° |
| 2026-05-08 14:03 | 25.10155 | 102.92279 | 6923 ft | 3 kts | 22° |
| 2026-05-08 14:03 | 25.10137 | 102.92273 | 6921 ft | 3 kts | 349° |
| 2026-05-08 14:03 | 25.10125 | 102.92278 | 6918 ft | 1 kts | 309° |
| 2026-05-08 14:07 | 25.10127 | 102.92275 | 6912 ft | 2 kts | 309° |
| 2026-05-08 14:07 | 25.10129 | 102.92272 | 6910 ft | 1 kts | 309° |
| 2026-05-08 14:08 | 25.10147 | 102.92248 | 6923 ft | 7 kts | 309° |
| 2026-05-08 14:08 | 25.10189 | 102.92191 | 6913 ft | 12 kts | 309° |
| 2026-05-08 14:08 | 25.10239 | 102.92115 | 6899 ft | 13 kts | 292° |
| 2026-05-08 14:08 | 25.10204 | 102.92041 | 6915 ft | 12 kts | 216° |
| 2026-05-08 14:09 | 25.10138 | 102.91984 | 6908 ft | 12 kts | 219° |
| 2026-05-08 14:09 | 25.10086 | 102.91913 | 6919 ft | 12 kts | 274° |
| 2026-05-08 14:09 | 25.10131 | 102.91844 | 6911 ft | 11 kts | 311° |
| 2026-05-08 14:09 | 25.10184 | 102.91776 | 6912 ft | 12 kts | 310° |
| 2026-05-08 14:10 | 25.10252 | 102.91735 | 6912 ft | 13 kts | 3° |
| 2026-05-08 14:10 | 25.10401 | 102.91851 | 6910 ft | 50 kts | 37° |
| 2026-05-08 14:10 | 25.10826 | 102.92217 | 6910 ft | 103 kts | 38° |
| 2026-05-08 14:10 | 25.11505 | 102.92812 | 6906 ft | 145 kts | 39° |
| 2026-05-08 14:11 | 25.12381 | 102.93568 | 7021 ft | 165 kts | 37° |
| 2026-05-08 14:11 | 25.13261 | 102.94335 | 7460 ft | 166 kts | 37° |
| 2026-05-08 14:11 | 25.14270 | 102.94998 | 7731 ft | 178 kts | 24° |
| 2026-05-08 14:11 | 25.15439 | 102.95533 | 8111 ft | 186 kts | 21° |
| 2026-05-08 14:12 | 25.16675 | 102.96052 | 8408 ft | 197 kts | 21° |
| 2026-05-08 14:12 | 25.18017 | 102.96631 | 8617 ft | 217 kts | 21° |
| 2026-05-08 14:12 | 25.19477 | 102.97288 | 8875 ft | 238 kts | 22° |
| 2026-05-08 14:12 | 25.21085 | 102.98032 | 9045 ft | 263 kts | 22° |
| 2026-05-08 14:13 | 25.22828 | 102.98849 | 9465 ft | 278 kts | 23° |
| 2026-05-08 14:13 | 25.24403 | 102.99591 | 10091 ft | 281 kts | 22° |
| 2026-05-08 14:13 | 25.26218 | 103.00447 | 10716 ft | 286 kts | 22° |
| 2026-05-08 14:13 | 25.28053 | 103.01313 | 11411 ft | 288 kts | 22° |
| 2026-05-08 14:14 | 25.29922 | 103.02169 | 11998 ft | 295 kts | 15° |
| 2026-05-08 14:14 | 25.31995 | 103.02433 | 12207 ft | 310 kts | 350° |
| 2026-05-08 14:14 | 25.34088 | 103.01709 | 12404 ft | 324 kts | 327° |
| 2026-05-08 14:14 | 25.35821 | 103.00074 | 12578 ft | 336 kts | 304° |
| 2026-05-08 14:15 | 25.36872 | 102.97750 | 12974 ft | 341 kts | 282° |
| 2026-05-08 14:15 | 25.37027 | 102.95166 | 13741 ft | 337 kts | 262° |
| 2026-05-08 14:15 | 25.36329 | 102.92686 | 14308 ft | 342 kts | 242° |
| 2026-05-08 14:15 | 25.34833 | 102.90634 | 14926 ft | 347 kts | 222° |
| 2026-05-08 14:16 | 25.32736 | 102.89267 | 15510 ft | 356 kts | 203° |
| 2026-05-08 14:16 | 25.30335 | 102.88502 | 16089 ft | 361 kts | 199° |
| 2026-05-08 14:16 | 25.27958 | 102.87604 | 16645 ft | 361 kts | 206° |
| 2026-05-08 14:16 | 25.25718 | 102.86360 | 17200 ft | 361 kts | 213° |
| 2026-05-08 14:17 | 25.23634 | 102.84879 | 17750 ft | 361 kts | 218° |
| 2026-05-08 14:17 | 25.21602 | 102.83238 | 18265 ft | 363 kts | 220° |
| 2026-05-08 14:17 | 25.19597 | 102.81527 | 18763 ft | 365 kts | 221° |
| 2026-05-08 14:17 | 25.17600 | 102.79797 | 19275 ft | 365 kts | 221° |
| 2026-05-08 14:18 | 25.15595 | 102.78059 | 19705 ft | 368 kts | 221° |
| 2026-05-08 14:18 | 25.13571 | 102.76310 | 20150 ft | 371 kts | 221° |
| 2026-05-08 14:18 | 25.11526 | 102.74550 | 20609 ft | 373 kts | 221° |
| 2026-05-08 14:18 | 25.09479 | 102.72793 | 21057 ft | 375 kts | 221° |
| 2026-05-08 14:19 | 25.07410 | 102.71020 | 21504 ft | 377 kts | 221° |
| 2026-05-08 14:19 | 25.05331 | 102.69240 | 21953 ft | 379 kts | 221° |
| 2026-05-08 14:19 | 25.03246 | 102.67455 | 22402 ft | 381 kts | 221° |
| 2026-05-08 14:19 | 25.01146 | 102.65659 | 22836 ft | 383 kts | 221° |
| 2026-05-08 14:20 | 24.99040 | 102.63857 | 23256 ft | 385 kts | 221° |
| 2026-05-08 14:20 | 24.96919 | 102.62043 | 23644 ft | 388 kts | 221° |
| 2026-05-08 14:20 | 24.94786 | 102.60220 | 24065 ft | 389 kts | 221° |
| 2026-05-08 14:20 | 24.92643 | 102.58390 | 24435 ft | 390 kts | 221° |
| 2026-05-08 14:21 | 24.90494 | 102.56554 | 24797 ft | 392 kts | 221° |
| 2026-05-08 14:21 | 24.88334 | 102.54711 | 25150 ft | 393 kts | 221° |
| 2026-05-08 14:21 | 24.86166 | 102.52862 | 25493 ft | 395 kts | 221° |
| 2026-05-08 14:21 | 24.84013 | 102.51027 | 25809 ft | 397 kts | 221° |
| 2026-05-08 14:22 | 24.81826 | 102.49164 | 26135 ft | 399 kts | 221° |
| 2026-05-08 14:22 | 24.79626 | 102.47290 | 26451 ft | 401 kts | 221° |
| 2026-05-08 14:22 | 24.77420 | 102.45407 | 26756 ft | 403 kts | 221° |
| 2026-05-08 14:22 | 24.75199 | 102.43519 | 27084 ft | 404 kts | 221° |
| 2026-05-08 14:23 | 24.72966 | 102.41621 | 27402 ft | 406 kts | 222° |
| 2026-05-08 14:23 | 24.70733 | 102.39724 | 27715 ft | 407 kts | 222° |
| 2026-05-08 14:23 | 24.68493 | 102.37821 | 27971 ft | 410 kts | 222° |
| 2026-05-08 14:23 | 24.66225 | 102.35895 | 28256 ft | 411 kts | 222° |
| 2026-05-08 14:24 | 24.63959 | 102.33972 | 28550 ft | 412 kts | 222° |
| 2026-05-08 14:24 | 24.61689 | 102.32045 | 28756 ft | 415 kts | 222° |
| 2026-05-08 14:24 | 24.59402 | 102.30105 | 29016 ft | 416 kts | 222° |
| 2026-05-08 14:24 | 24.57104 | 102.28157 | 29271 ft | 418 kts | 222° |
| 2026-05-08 14:25 | 24.54797 | 102.26200 | 29497 ft | 420 kts | 222° |
| 2026-05-08 14:25 | 24.52478 | 102.24237 | 29746 ft | 421 kts | 222° |
| 2026-05-08 14:25 | 24.50150 | 102.22266 | 30007 ft | 423 kts | 222° |
| 2026-05-08 14:25 | 24.47844 | 102.20316 | 30235 ft | 425 kts | 222° |
| 2026-05-08 14:26 | 24.45498 | 102.18334 | 30432 ft | 427 kts | 222° |
| 2026-05-08 14:26 | 24.43141 | 102.16342 | 30676 ft | 427 kts | 222° |
| 2026-05-08 14:26 | 24.40786 | 102.14352 | 30933 ft | 428 kts | 222° |
| 2026-05-08 14:26 | 24.38419 | 102.12353 | 31150 ft | 430 kts | 222° |
| 2026-05-08 14:27 | 24.36048 | 102.10352 | 31409 ft | 430 kts | 222° |
| 2026-05-08 14:27 | 24.33680 | 102.08355 | 31726 ft | 428 kts | 222° |
| 2026-05-08 14:27 | 24.31319 | 102.06366 | 32030 ft | 428 kts | 222° |
| 2026-05-08 14:27 | 24.28967 | 102.04384 | 32355 ft | 426 kts | 222° |
| 2026-05-08 14:28 | 24.26621 | 102.02408 | 32650 ft | 425 kts | 222° |
| 2026-05-08 14:28 | 24.24279 | 102.00436 | 32941 ft | 424 kts | 222° |
| 2026-05-08 14:28 | 24.21937 | 101.98465 | 33185 ft | 423 kts | 222° |
| 2026-05-08 14:28 | 24.19607 | 101.96504 | 33468 ft | 422 kts | 222° |
| 2026-05-08 14:29 | 24.17283 | 101.94550 | 33727 ft | 421 kts | 222° |
| 2026-05-08 14:29 | 24.14957 | 101.92595 | 33970 ft | 420 kts | 222° |
| 2026-05-08 14:29 | 24.12644 | 101.90652 | 34195 ft | 419 kts | 222° |
| 2026-05-08 14:29 | 24.10330 | 101.88710 | 34406 ft | 419 kts | 222° |
| 2026-05-08 14:30 | 24.08053 | 101.86798 | 34639 ft | 418 kts | 222° |
| 2026-05-08 14:30 | 24.05746 | 101.84863 | 34819 ft | 418 kts | 222° |
| 2026-05-08 14:30 | 24.03438 | 101.82927 | 35064 ft | 417 kts | 222° |
| 2026-05-08 14:30 | 24.01138 | 101.80999 | 35221 ft | 417 kts | 222° |
| 2026-05-08 14:31 | 23.98812 | 101.79094 | 35380 ft | 419 kts | 219° |
| 2026-05-08 14:31 | 23.96341 | 101.77388 | 35514 ft | 421 kts | 216° |
| 2026-05-08 14:31 | 23.93822 | 101.75749 | 35653 ft | 421 kts | 216° |
| 2026-05-08 14:32 | 23.88817 | 101.72467 | 36030 ft | 419 kts | 216° |
| 2026-05-08 14:32 | 23.86319 | 101.70827 | 36213 ft | 418 kts | 216° |
| 2026-05-08 14:32 | 23.83823 | 101.69192 | 36341 ft | 418 kts | 217° |
| 2026-05-08 14:32 | 23.81332 | 101.67559 | 36444 ft | 418 kts | 217° |
| 2026-05-08 14:33 | 23.76333 | 101.64280 | 36690 ft | 419 kts | 216° |
| 2026-05-08 14:33 | 23.73834 | 101.62645 | 36825 ft | 419 kts | 216° |
| 2026-05-08 14:33 | 23.71345 | 101.61018 | 37017 ft | 417 kts | 216° |
| 2026-05-08 14:34 | 23.68850 | 101.59387 | 37154 ft | 417 kts | 216° |
| 2026-05-08 14:34 | 23.66364 | 101.57764 | 37360 ft | 416 kts | 216° |
| 2026-05-08 14:34 | 23.63882 | 101.56141 | 37482 ft | 416 kts | 216° |
| 2026-05-08 14:34 | 23.61401 | 101.54521 | 37650 ft | 416 kts | 216° |
| 2026-05-08 14:35 | 23.58917 | 101.52900 | 37776 ft | 416 kts | 216° |
| 2026-05-08 14:35 | 23.56438 | 101.51283 | 37913 ft | 415 kts | 216° |
| 2026-05-08 14:35 | 23.51481 | 101.48048 | 38047 ft | 416 kts | 216° |
| 2026-05-08 14:36 | 23.47349 | 101.45357 | 38157 ft | 416 kts | 216° |
| 2026-05-08 14:36 | 23.42398 | 101.42135 | 38158 ft | 413 kts | 216° |
| 2026-05-08 14:37 | 23.37457 | 101.38920 | 38159 ft | 415 kts | 216° |
| 2026-05-08 14:37 | 23.32499 | 101.35697 | 38155 ft | 415 kts | 216° |
| 2026-05-08 14:38 | 23.27541 | 101.32480 | 38155 ft | 413 kts | 216° |
| 2026-05-08 14:38 | 23.22601 | 101.29275 | 38148 ft | 414 kts | 216° |
| 2026-05-08 14:39 | 23.17681 | 101.26085 | 38144 ft | 415 kts | 216° |
| 2026-05-08 14:39 | 23.12712 | 101.22865 | 38141 ft | 416 kts | 216° |
| 2026-05-08 14:40 | 23.07736 | 101.19647 | 38136 ft | 416 kts | 216° |
| 2026-05-08 14:40 | 23.02760 | 101.16430 | 38129 ft | 416 kts | 216° |
| 2026-05-08 14:41 | 22.97796 | 101.13223 | 38129 ft | 416 kts | 216° |
| 2026-05-08 14:41 | 22.92815 | 101.10009 | 38130 ft | 416 kts | 216° |
| 2026-05-08 14:42 | 22.87833 | 101.06798 | 38123 ft | 416 kts | 216° |
| 2026-05-08 14:42 | 22.82856 | 101.03592 | 38119 ft | 416 kts | 215° |
| 2026-05-08 14:43 | 22.77772 | 101.00537 | 38124 ft | 422 kts | 207° |
| 2026-05-08 14:43 | 22.72054 | 100.98969 | 38117 ft | 435 kts | 191° |
| 2026-05-08 14:44 | 22.65921 | 100.99358 | 38117 ft | 452 kts | 173° |
| 2026-05-08 14:44 | 22.59919 | 101.01673 | 38124 ft | 461 kts | 164° |
| 2026-05-08 14:45 | 22.53974 | 101.04268 | 38115 ft | 459 kts | 164° |
| 2026-05-08 14:45 | 22.48043 | 101.06840 | 38114 ft | 459 kts | 164° |
| 2026-05-08 14:46 | 22.42110 | 101.09412 | 38031 ft | 458 kts | 164° |
| 2026-05-08 14:46 | 22.37185 | 101.11545 | 38010 ft | 460 kts | 164° |
| 2026-05-08 14:47 | 22.33305 | 101.13225 | 38006 ft | 460 kts | 164° |
| 2026-05-08 14:47 | 22.27354 | 101.15800 | 38004 ft | 460 kts | 164° |
| 2026-05-08 14:48 | 22.21407 | 101.18371 | 37994 ft | 460 kts | 163° |
| 2026-05-08 14:48 | 22.15456 | 101.20941 | 37997 ft | 460 kts | 163° |
| 2026-05-08 14:49 | 22.09522 | 101.23502 | 38001 ft | 458 kts | 163° |
| 2026-05-08 14:49 | 22.03620 | 101.26043 | 37996 ft | 457 kts | 163° |
| 2026-05-08 14:50 | 21.97682 | 101.28599 | 37994 ft | 462 kts | 163° |
| 2026-05-08 14:50 | 21.91727 | 101.31163 | 37991 ft | 460 kts | 163° |
| 2026-05-08 14:51 | 21.85777 | 101.33729 | 37995 ft | 462 kts | 163° |
| 2026-05-08 14:51 | 21.79845 | 101.36288 | 37988 ft | 462 kts | 163° |
| 2026-05-08 14:52 | 21.70885 | 101.40150 | 37989 ft | 462 kts | 163° |
| 2026-05-08 14:53 | 21.64902 | 101.42723 | 37998 ft | 465 kts | 163° |
| 2026-05-08 14:53 | 21.58891 | 101.45308 | 37994 ft | 465 kts | 162° |
| 2026-05-08 14:54 | 21.52885 | 101.47887 | 37998 ft | 464 kts | 162° |
| 2026-05-08 14:54 | 21.46876 | 101.50465 | 37999 ft | 465 kts | 162° |
| 2026-05-08 14:55 | 21.40870 | 101.53040 | 37996 ft | 466 kts | 162° |
| 2026-05-08 14:55 | 21.34844 | 101.55622 | 37996 ft | 466 kts | 162° |
| 2026-05-08 14:56 | 21.28813 | 101.58203 | 37995 ft | 466 kts | 162° |
| 2026-05-08 14:56 | 21.22779 | 101.60783 | 37999 ft | 467 kts | 162° |
| 2026-05-08 14:57 | 21.16743 | 101.63366 | 38004 ft | 467 kts | 162° |
| 2026-05-08 14:57 | 21.10760 | 101.65952 | 38000 ft | 467 kts | 162° |
| 2026-05-08 14:58 | 21.04727 | 101.68560 | 37996 ft | 467 kts | 162° |
| 2026-05-08 14:58 | 20.98701 | 101.71160 | 37997 ft | 467 kts | 162° |
| 2026-05-08 14:59 | 20.92668 | 101.73759 | 37991 ft | 467 kts | 162° |
| 2026-05-08 14:59 | 20.83624 | 101.77651 | 37993 ft | 467 kts | 162° |
| 2026-05-08 15:00 | 20.77585 | 101.80247 | 37991 ft | 467 kts | 162° |
| 2026-05-08 15:00 | 20.71549 | 101.82840 | 37990 ft | 467 kts | 162° |
| 2026-05-08 15:01 | 20.65511 | 101.85430 | 37985 ft | 467 kts | 162° |
| 2026-05-08 15:01 | 20.59478 | 101.88017 | 37990 ft | 467 kts | 162° |
| 2026-05-08 15:02 | 20.53484 | 101.90585 | 37995 ft | 467 kts | 162° |
| 2026-05-08 15:02 | 20.47454 | 101.93165 | 37998 ft | 467 kts | 162° |
| 2026-05-08 15:03 | 20.41417 | 101.95748 | 38001 ft | 467 kts | 162° |
| 2026-05-08 15:03 | 20.35375 | 101.98329 | 37991 ft | 467 kts | 162° |
| 2026-05-08 15:04 | 20.29354 | 102.00900 | 37988 ft | 465 kts | 162° |
| 2026-05-08 15:04 | 20.23346 | 102.03463 | 37982 ft | 465 kts | 162° |
| 2026-05-08 15:05 | 20.17342 | 102.06021 | 37986 ft | 465 kts | 161° |
| 2026-05-08 15:05 | 20.11363 | 102.08567 | 37981 ft | 465 kts | 161° |
| 2026-05-08 15:06 | 20.05348 | 102.11127 | 37980 ft | 466 kts | 161° |
| 2026-05-08 15:06 | 19.99329 | 102.13686 | 37979 ft | 466 kts | 161° |
| 2026-05-08 15:07 | 19.93204 | 102.15770 | 37979 ft | 459 kts | 175° |
| 2026-05-08 15:07 | 19.86902 | 102.15770 | 37975 ft | 452 kts | 193° |
| 2026-05-08 15:08 | 19.81873 | 102.14365 | 37974 ft | 449 kts | 199° |
| 2026-05-08 15:08 | 19.74858 | 102.12211 | 37977 ft | 449 kts | 199° |
| 2026-05-08 15:09 | 19.68884 | 102.10385 | 37977 ft | 449 kts | 199° |
| 2026-05-08 15:09 | 19.62873 | 102.08549 | 37979 ft | 450 kts | 199° |
| 2026-05-08 15:10 | 19.56842 | 102.06707 | 37981 ft | 450 kts | 199° |
| 2026-05-08 15:10 | 19.50822 | 102.04869 | 37978 ft | 450 kts | 199° |
| 2026-05-08 15:11 | 19.44796 | 102.03031 | 37986 ft | 450 kts | 199° |
| 2026-05-08 15:11 | 19.38773 | 102.01196 | 37987 ft | 450 kts | 199° |
| 2026-05-08 15:12 | 19.32746 | 101.99361 | 37983 ft | 450 kts | 199° |
| 2026-05-08 15:12 | 19.26726 | 101.97529 | 37982 ft | 450 kts | 199° |
| 2026-05-08 15:13 | 19.20703 | 101.95697 | 37986 ft | 450 kts | 198° |
| 2026-05-08 15:13 | 19.14679 | 101.93867 | 37975 ft | 451 kts | 198° |
| 2026-05-08 15:14 | 19.08650 | 101.92037 | 37971 ft | 451 kts | 198° |
| 2026-05-08 15:14 | 19.02614 | 101.90206 | 37975 ft | 451 kts | 198° |
| 2026-05-08 15:15 | 18.96619 | 101.88389 | 37968 ft | 451 kts | 198° |
| 2026-05-08 15:15 | 18.90590 | 101.86562 | 37969 ft | 451 kts | 198° |
| 2026-05-08 15:16 | 18.84558 | 101.84736 | 37964 ft | 450 kts | 198° |
| 2026-05-08 15:16 | 18.78535 | 101.82915 | 37961 ft | 450 kts | 198° |
| 2026-05-08 15:17 | 18.72516 | 101.81096 | 37955 ft | 450 kts | 198° |
| 2026-05-08 15:17 | 18.66495 | 101.79278 | 37955 ft | 449 kts | 198° |
| 2026-05-08 15:18 | 18.60485 | 101.77464 | 37948 ft | 449 kts | 198° |
| 2026-05-08 15:18 | 18.54475 | 101.75652 | 37949 ft | 449 kts | 198° |
| 2026-05-08 15:19 | 18.48461 | 101.73839 | 37955 ft | 449 kts | 198° |
| 2026-05-08 15:19 | 18.42457 | 101.72031 | 37962 ft | 449 kts | 198° |
| 2026-05-08 15:20 | 18.36445 | 101.70223 | 37958 ft | 449 kts | 198° |
| 2026-05-08 15:20 | 18.30437 | 101.68417 | 37951 ft | 449 kts | 198° |
| 2026-05-08 15:21 | 18.24425 | 101.66611 | 37947 ft | 450 kts | 198° |
| 2026-05-08 15:21 | 18.18445 | 101.64816 | 37944 ft | 449 kts | 198° |
| 2026-05-08 15:22 | 18.12426 | 101.63011 | 37948 ft | 450 kts | 198° |
| 2026-05-08 15:22 | 18.06410 | 101.61207 | 37951 ft | 450 kts | 198° |
| 2026-05-08 15:23 | 18.00390 | 101.59404 | 37943 ft | 450 kts | 198° |
| 2026-05-08 15:23 | 17.94374 | 101.57602 | 37948 ft | 450 kts | 198° |
| 2026-05-08 15:24 | 17.89324 | 101.56092 | 37953 ft | 450 kts | 197° |
| 2026-05-08 15:24 | 17.83302 | 101.54291 | 37949 ft | 450 kts | 197° |
| 2026-05-08 15:25 | 17.77308 | 101.52500 | 37961 ft | 451 kts | 197° |
| 2026-05-08 15:25 | 17.71271 | 101.50695 | 37968 ft | 451 kts | 197° |
| 2026-05-08 15:26 | 17.65244 | 101.48878 | 37969 ft | 451 kts | 197° |
| 2026-05-08 15:26 | 17.59204 | 101.47058 | 37980 ft | 451 kts | 197° |
| 2026-05-08 15:27 | 17.53170 | 101.45244 | 37976 ft | 451 kts | 197° |
| 2026-05-08 15:27 | 17.47152 | 101.43435 | 37976 ft | 449 kts | 197° |
| 2026-05-08 15:28 | 17.41138 | 101.41629 | 37978 ft | 449 kts | 197° |
| 2026-05-08 15:28 | 17.35124 | 101.39824 | 37978 ft | 449 kts | 197° |
| 2026-05-08 15:29 | 17.29118 | 101.38023 | 37976 ft | 449 kts | 197° |
| 2026-05-08 15:29 | 17.23113 | 101.36229 | 37979 ft | 449 kts | 197° |
| 2026-05-08 15:30 | 17.17110 | 101.34443 | 37979 ft | 449 kts | 197° |
| 2026-05-08 15:30 | 17.11105 | 101.32655 | 37984 ft | 448 kts | 197° |
| 2026-05-08 15:31 | 17.05108 | 101.30861 | 37973 ft | 448 kts | 197° |
| 2026-05-08 15:31 | 16.99154 | 101.29080 | 37973 ft | 448 kts | 197° |
| 2026-05-08 15:32 | 16.93162 | 101.27289 | 37968 ft | 447 kts | 197° |
| 2026-05-08 15:32 | 16.87178 | 101.25502 | 37965 ft | 447 kts | 197° |
| 2026-05-08 15:33 | 16.81196 | 101.23717 | 37955 ft | 447 kts | 197° |
| 2026-05-08 15:33 | 16.75219 | 101.21935 | 37953 ft | 447 kts | 197° |
| 2026-05-08 15:34 | 16.69241 | 101.20154 | 37946 ft | 447 kts | 196° |
| 2026-05-08 15:34 | 16.63367 | 101.18062 | 37947 ft | 446 kts | 200° |
| 2026-05-08 15:35 | 16.57533 | 101.15838 | 37941 ft | 446 kts | 200° |
| 2026-05-08 15:35 | 16.51691 | 101.13619 | 37940 ft | 447 kts | 200° |
| 2026-05-08 15:36 | 16.45849 | 101.11402 | 37937 ft | 447 kts | 200° |
| 2026-05-08 15:36 | 16.39997 | 101.09182 | 37933 ft | 448 kts | 200° |
| 2026-05-08 15:37 | 16.34178 | 101.06976 | 37928 ft | 448 kts | 200° |
| 2026-05-08 15:37 | 16.28308 | 101.04752 | 37927 ft | 449 kts | 200° |
| 2026-05-08 15:38 | 16.22424 | 101.02524 | 37930 ft | 450 kts | 200° |
| 2026-05-08 15:38 | 16.16529 | 101.00294 | 37937 ft | 451 kts | 199° |
| 2026-05-08 15:39 | 16.10616 | 100.98058 | 37927 ft | 452 kts | 199° |
| 2026-05-08 15:39 | 16.04692 | 100.95819 | 37938 ft | 453 kts | 199° |
| 2026-05-08 15:40 | 15.98753 | 100.93576 | 37945 ft | 454 kts | 199° |
| 2026-05-08 15:40 | 15.92804 | 100.91331 | 37928 ft | 455 kts | 199° |
| 2026-05-08 15:41 | 15.86869 | 100.89092 | 37919 ft | 453 kts | 199° |
| 2026-05-08 15:41 | 15.80932 | 100.86854 | 37931 ft | 454 kts | 199° |
| 2026-05-08 15:42 | 15.75022 | 100.84628 | 37931 ft | 455 kts | 199° |
| 2026-05-08 15:42 | 15.69064 | 100.82385 | 37926 ft | 456 kts | 199° |
| 2026-05-08 15:43 | 15.63097 | 100.80140 | 37930 ft | 457 kts | 199° |
| 2026-05-08 15:43 | 15.57117 | 100.77891 | 37933 ft | 457 kts | 199° |
| 2026-05-08 15:44 | 15.51124 | 100.75640 | 37931 ft | 458 kts | 199° |
| 2026-05-08 15:44 | 15.45124 | 100.73386 | 37940 ft | 459 kts | 199° |
| 2026-05-08 15:45 | 15.39108 | 100.71128 | 37933 ft | 459 kts | 199° |
| 2026-05-08 15:45 | 15.33114 | 100.68880 | 37934 ft | 458 kts | 199° |
| 2026-05-08 15:46 | 15.26973 | 100.67124 | 37931 ft | 458 kts | 189° |
| 2026-05-08 15:46 | 15.20640 | 100.66452 | 37932 ft | 457 kts | 182° |
| 2026-05-08 15:47 | 15.14281 | 100.66134 | 37934 ft | 458 kts | 182° |
| 2026-05-08 15:47 | 15.07956 | 100.65801 | 37931 ft | 458 kts | 182° |
| 2026-05-08 15:48 | 14.98403 | 100.65299 | 37936 ft | 458 kts | 182° |
| 2026-05-08 15:49 | 14.92029 | 100.64965 | 37928 ft | 458 kts | 182° |
| 2026-05-08 15:49 | 14.85651 | 100.64632 | 37932 ft | 459 kts | 182° |
| 2026-05-08 15:50 | 14.79271 | 100.64299 | 37928 ft | 459 kts | 182° |
| 2026-05-08 15:50 | 14.72889 | 100.63965 | 37929 ft | 459 kts | 182° |
| 2026-05-08 15:51 | 14.66508 | 100.63632 | 37923 ft | 459 kts | 182° |
| 2026-05-08 15:51 | 14.60121 | 100.63299 | 37932 ft | 460 kts | 182° |
| 2026-05-08 15:52 | 14.53726 | 100.62965 | 37935 ft | 460 kts | 182° |
| 2026-05-08 15:52 | 14.47370 | 100.62634 | 37931 ft | 460 kts | 182° |
| 2026-05-08 15:53 | 14.40963 | 100.62300 | 37935 ft | 461 kts | 182° |
| 2026-05-08 15:53 | 14.34560 | 100.61967 | 37933 ft | 461 kts | 182° |
| 2026-05-08 15:54 | 14.28144 | 100.61633 | 37928 ft | 461 kts | 182° |
| 2026-05-08 15:54 | 14.21725 | 100.61300 | 37932 ft | 462 kts | 182° |
| 2026-05-08 15:55 | 14.15307 | 100.60966 | 37925 ft | 462 kts | 182° |
| 2026-05-08 15:55 | 14.05675 | 100.60466 | 37917 ft | 462 kts | 182° |
| 2026-05-08 15:56 | 13.99622 | 100.60151 | 37913 ft | 462 kts | 182° |
| 2026-05-08 15:56 | 13.94042 | 100.59862 | 37916 ft | 462 kts | 182° |
| 2026-05-08 15:57 | 13.89121 | 100.59718 | 37918 ft | 461 kts | 176° |
| 2026-05-08 15:57 | 13.83022 | 100.60256 | 37917 ft | 460 kts | 173° |
| 2026-05-08 15:58 | 13.76642 | 100.60908 | 37915 ft | 460 kts | 173° |
| 2026-05-08 15:58 | 13.70265 | 100.61552 | 37920 ft | 460 kts | 173° |
| 2026-05-08 15:59 | 13.63890 | 100.62196 | 37917 ft | 460 kts | 173° |
| 2026-05-08 15:59 | 13.57566 | 100.62835 | 37915 ft | 460 kts | 173° |
| 2026-05-08 16:00 | 13.51157 | 100.63483 | 37915 ft | 459 kts | 173° |
| 2026-05-08 16:00 | 13.44839 | 100.64121 | 37908 ft | 459 kts | 173° |
| 2026-05-08 16:01 | 13.38480 | 100.64763 | 37904 ft | 459 kts | 173° |
| 2026-05-08 16:01 | 13.32126 | 100.65404 | 37903 ft | 459 kts | 173° |
| 2026-05-08 16:02 | 13.25774 | 100.66044 | 37902 ft | 459 kts | 173° |
| 2026-05-08 16:02 | 13.19422 | 100.66685 | 37898 ft | 459 kts | 173° |
| 2026-05-08 16:03 | 13.13064 | 100.67325 | 37901 ft | 459 kts | 173° |
| 2026-05-08 16:03 | 13.06697 | 100.67797 | 37899 ft | 460 kts | 179° |
| 2026-05-08 16:04 | 13.00297 | 100.67627 | 37897 ft | 460 kts | 180° |
| 2026-05-08 16:04 | 12.93892 | 100.67458 | 37898 ft | 460 kts | 180° |
| 2026-05-08 16:05 | 12.87483 | 100.67291 | 37895 ft | 461 kts | 180° |
| 2026-05-08 16:05 | 12.81068 | 100.67124 | 37902 ft | 461 kts | 180° |
| 2026-05-08 16:06 | 12.74649 | 100.66956 | 37900 ft | 462 kts | 180° |
| 2026-05-08 16:06 | 12.68265 | 100.66789 | 37901 ft | 462 kts | 180° |
| 2026-05-08 16:07 | 12.61833 | 100.66621 | 37912 ft | 462 kts | 180° |
| 2026-05-08 16:07 | 12.55398 | 100.66454 | 37915 ft | 463 kts | 180° |
| 2026-05-08 16:08 | 12.48957 | 100.66286 | 37910 ft | 463 kts | 180° |
| 2026-05-08 16:08 | 12.42536 | 100.66118 | 37906 ft | 460 kts | 180° |
| 2026-05-08 16:09 | 12.37220 | 100.65980 | 37906 ft | 460 kts | 180° |
| 2026-05-08 16:09 | 12.29743 | 100.65785 | 37904 ft | 460 kts | 180° |
| 2026-05-08 16:10 | 12.23344 | 100.65618 | 37910 ft | 460 kts | 180° |
| 2026-05-08 16:10 | 12.16986 | 100.65453 | 37912 ft | 461 kts | 180° |
| 2026-05-08 16:11 | 12.10569 | 100.65286 | 37910 ft | 461 kts | 180° |
| 2026-05-08 16:11 | 12.04148 | 100.65119 | 37909 ft | 462 kts | 180° |
| 2026-05-08 16:12 | 11.98763 | 100.64982 | 37914 ft | 462 kts | 180° |
| 2026-05-08 16:12 | 11.92364 | 100.64821 | 37913 ft | 463 kts | 180° |
| 2026-05-08 16:13 | 11.85924 | 100.64658 | 37907 ft | 463 kts | 180° |
| 2026-05-08 16:13 | 11.79504 | 100.64496 | 37911 ft | 461 kts | 180° |
| 2026-05-08 16:14 | 11.73088 | 100.64334 | 37912 ft | 461 kts | 180° |
| 2026-05-08 16:14 | 11.66676 | 100.64172 | 37917 ft | 460 kts | 180° |
| 2026-05-08 16:15 | 11.60270 | 100.64010 | 37909 ft | 460 kts | 180° |
| 2026-05-08 16:15 | 11.53864 | 100.63848 | 37913 ft | 460 kts | 180° |
| 2026-05-08 16:16 | 11.47469 | 100.63687 | 37906 ft | 459 kts | 180° |
| 2026-05-08 16:16 | 11.41117 | 100.63526 | 37907 ft | 459 kts | 180° |
| 2026-05-08 16:17 | 11.34733 | 100.63365 | 37905 ft | 459 kts | 180° |
| 2026-05-08 16:17 | 11.28358 | 100.63205 | 37905 ft | 458 kts | 180° |
| 2026-05-08 16:18 | 11.21984 | 100.63044 | 37904 ft | 458 kts | 180° |
| 2026-05-08 16:18 | 11.15612 | 100.62884 | 37907 ft | 458 kts | 180° |
| 2026-05-08 16:19 | 11.09243 | 100.62723 | 37909 ft | 457 kts | 180° |
| 2026-05-08 16:19 | 11.02879 | 100.62563 | 37909 ft | 457 kts | 180° |
| 2026-05-08 16:20 | 10.96517 | 100.62403 | 37910 ft | 457 kts | 180° |
| 2026-05-08 16:20 | 10.90155 | 100.62243 | 37912 ft | 457 kts | 180° |
| 2026-05-08 16:21 | 10.83837 | 100.62085 | 37912 ft | 457 kts | 180° |
| 2026-05-08 16:21 | 10.77477 | 100.61925 | 37908 ft | 457 kts | 180° |
| 2026-05-08 16:22 | 10.71121 | 100.61765 | 37905 ft | 457 kts | 180° |
| 2026-05-08 16:22 | 10.64759 | 100.61606 | 37913 ft | 457 kts | 180° |
| 2026-05-08 16:23 | 10.58406 | 100.61446 | 37911 ft | 457 kts | 180° |
| 2026-05-08 16:23 | 10.52391 | 100.61295 | 37910 ft | 456 kts | 180° |
| 2026-05-08 16:24 | 10.46045 | 100.61137 | 37917 ft | 456 kts | 180° |
| 2026-05-08 16:24 | 10.39694 | 100.60982 | 37915 ft | 456 kts | 180° |
| 2026-05-08 16:25 | 10.33340 | 100.60827 | 37914 ft | 456 kts | 180° |
| 2026-05-08 16:25 | 10.27003 | 100.60672 | 37917 ft | 456 kts | 180° |
| 2026-05-08 16:26 | 10.20692 | 100.60517 | 37912 ft | 456 kts | 180° |
| 2026-05-08 16:26 | 10.14350 | 100.60362 | 37913 ft | 456 kts | 180° |
| 2026-05-08 16:27 | 10.08008 | 100.60207 | 37915 ft | 456 kts | 180° |
| 2026-05-08 16:27 | 10.01672 | 100.60052 | 37906 ft | 455 kts | 180° |
| 2026-05-08 16:28 | 9.95337 | 100.59897 | 37910 ft | 455 kts | 180° |
| 2026-05-08 16:28 | 9.89002 | 100.59742 | 37905 ft | 455 kts | 180° |
| 2026-05-08 16:29 | 9.82670 | 100.59588 | 37900 ft | 455 kts | 180° |
| 2026-05-08 16:29 | 9.76335 | 100.59434 | 37902 ft | 455 kts | 180° |
| 2026-05-08 16:30 | 9.70003 | 100.59281 | 37908 ft | 455 kts | 180° |
| 2026-05-08 16:30 | 9.63669 | 100.59128 | 37906 ft | 455 kts | 180° |
| 2026-05-08 16:31 | 9.57333 | 100.58976 | 37908 ft | 455 kts | 180° |
| 2026-05-08 16:31 | 9.51003 | 100.58823 | 37910 ft | 455 kts | 180° |
| 2026-05-08 16:32 | 9.44708 | 100.58671 | 37908 ft | 455 kts | 180° |
| 2026-05-08 16:32 | 9.38370 | 100.58520 | 37900 ft | 455 kts | 180° |
| 2026-05-08 16:33 | 9.32032 | 100.58368 | 37898 ft | 456 kts | 180° |
| 2026-05-08 16:33 | 9.25689 | 100.58217 | 37893 ft | 456 kts | 180° |
| 2026-05-08 16:34 | 9.19347 | 100.58066 | 37898 ft | 456 kts | 180° |
| 2026-05-08 16:34 | 9.12994 | 100.57914 | 37902 ft | 457 kts | 180° |
| 2026-05-08 16:35 | 9.06636 | 100.57763 | 37907 ft | 457 kts | 180° |
| 2026-05-08 16:35 | 9.00272 | 100.57611 | 37906 ft | 458 kts | 180° |
| 2026-05-08 16:36 | 8.93894 | 100.57459 | 37903 ft | 458 kts | 180° |
| 2026-05-08 16:36 | 8.87548 | 100.57308 | 37899 ft | 459 kts | 180° |
| 2026-05-08 16:37 | 8.81161 | 100.57159 | 37891 ft | 459 kts | 180° |
| 2026-05-08 16:37 | 8.74757 | 100.57010 | 37891 ft | 460 kts | 180° |
| 2026-05-08 16:38 | 8.68352 | 100.56861 | 37895 ft | 460 kts | 180° |
| 2026-05-08 16:38 | 8.61935 | 100.56711 | 37894 ft | 461 kts | 180° |
| 2026-05-08 16:39 | 8.55548 | 100.56562 | 37887 ft | 458 kts | 180° |
| 2026-05-08 16:39 | 8.49181 | 100.56414 | 37888 ft | 458 kts | 180° |
| 2026-05-08 16:40 | 8.42843 | 100.56266 | 37885 ft | 458 kts | 180° |
| 2026-05-08 16:40 | 8.36483 | 100.56118 | 37887 ft | 458 kts | 180° |
| 2026-05-08 16:41 | 8.30118 | 100.55970 | 37883 ft | 457 kts | 180° |
| 2026-05-08 16:42 | 8.20602 | 100.55749 | 37875 ft | 455 kts | 180° |
| 2026-05-08 16:42 | 8.14268 | 100.55601 | 37871 ft | 455 kts | 180° |
| 2026-05-08 16:43 | 8.07981 | 100.55455 | 37870 ft | 454 kts | 180° |
| 2026-05-08 16:43 | 8.01663 | 100.55308 | 37865 ft | 454 kts | 180° |
| 2026-05-08 16:44 | 7.95352 | 100.55162 | 37864 ft | 454 kts | 180° |
| 2026-05-08 16:44 | 7.89035 | 100.55015 | 37870 ft | 454 kts | 180° |
| 2026-05-08 16:45 | 7.82721 | 100.54868 | 37872 ft | 454 kts | 180° |
| 2026-05-08 16:45 | 7.76406 | 100.54722 | 37872 ft | 454 kts | 180° |
| 2026-05-08 16:46 | 7.70067 | 100.54575 | 37875 ft | 455 kts | 180° |
| 2026-05-08 16:46 | 7.63768 | 100.54428 | 37880 ft | 456 kts | 180° |
| 2026-05-08 16:47 | 7.57426 | 100.54281 | 37881 ft | 456 kts | 180° |
| 2026-05-08 16:47 | 7.51070 | 100.54134 | 37887 ft | 457 kts | 180° |
| 2026-05-08 16:48 | 7.44704 | 100.54001 | 37891 ft | 458 kts | 180° |
| 2026-05-08 16:48 | 7.38327 | 100.53889 | 37899 ft | 459 kts | 180° |
| 2026-05-08 16:49 | 7.31942 | 100.53773 | 37899 ft | 459 kts | 180° |
| 2026-05-08 16:49 | 7.25543 | 100.53655 | 37905 ft | 460 kts | 180° |
| 2026-05-08 16:50 | 7.19142 | 100.53537 | 37900 ft | 460 kts | 180° |
| 2026-05-08 16:50 | 7.12729 | 100.53418 | 37905 ft | 461 kts | 180° |
| 2026-05-08 16:51 | 7.06314 | 100.53300 | 37899 ft | 461 kts | 180° |
| 2026-05-08 16:51 | 6.99899 | 100.53181 | 37890 ft | 460 kts | 180° |
| 2026-05-08 16:52 | 6.93504 | 100.53063 | 37890 ft | 459 kts | 180° |
| 2026-05-08 16:52 | 6.87114 | 100.52945 | 37887 ft | 459 kts | 180° |
| 2026-05-08 16:53 | 6.77533 | 100.52768 | 37894 ft | 459 kts | 180° |
| 2026-05-08 16:53 | 6.71132 | 100.52651 | 37904 ft | 459 kts | 180° |
| 2026-05-08 16:54 | 6.64781 | 100.52534 | 37912 ft | 459 kts | 180° |
| 2026-05-08 16:54 | 6.58397 | 100.52416 | 37923 ft | 459 kts | 180° |
| 2026-05-08 16:55 | 6.52009 | 100.52323 | 37921 ft | 459 kts | 178° |
| 2026-05-08 16:55 | 6.45681 | 100.52997 | 37914 ft | 458 kts | 168° |
| 2026-05-08 16:56 | 6.39441 | 100.54280 | 37916 ft | 457 kts | 168° |
| 2026-05-08 16:56 | 6.33193 | 100.55545 | 37913 ft | 458 kts | 168° |
| 2026-05-08 16:57 | 6.26953 | 100.56807 | 37915 ft | 458 kts | 168° |
| 2026-05-08 16:57 | 6.20705 | 100.58072 | 37909 ft | 458 kts | 168° |
| 2026-05-08 16:58 | 6.14468 | 100.59335 | 37914 ft | 458 kts | 168° |
| 2026-05-08 16:58 | 6.08226 | 100.60599 | 37915 ft | 458 kts | 168° |
| 2026-05-08 16:59 | 6.01976 | 100.61864 | 37918 ft | 458 kts | 167° |
| 2026-05-08 16:59 | 5.95735 | 100.63127 | 37914 ft | 458 kts | 167° |
| 2026-05-08 17:00 | 5.90547 | 100.64177 | 37916 ft | 458 kts | 167° |
| 2026-05-08 17:00 | 5.83288 | 100.65645 | 37923 ft | 457 kts | 167° |
| 2026-05-08 17:01 | 5.78094 | 100.66696 | 37923 ft | 457 kts | 167° |
| 2026-05-08 17:01 | 5.71855 | 100.67957 | 37915 ft | 457 kts | 167° |
| 2026-05-08 17:02 | 5.65625 | 100.69215 | 37924 ft | 456 kts | 167° |
| 2026-05-08 17:02 | 5.59395 | 100.70474 | 37926 ft | 456 kts | 167° |
| 2026-05-08 17:03 | 5.53165 | 100.71732 | 37923 ft | 456 kts | 167° |
| 2026-05-08 17:03 | 5.46947 | 100.72988 | 37924 ft | 455 kts | 167° |
| 2026-05-08 17:04 | 5.40778 | 100.74234 | 37914 ft | 455 kts | 167° |
| 2026-05-08 17:04 | 5.34562 | 100.75454 | 37918 ft | 455 kts | 169° |
| 2026-05-08 17:05 | 5.28307 | 100.76416 | 37911 ft | 454 kts | 169° |
| 2026-05-08 17:05 | 5.22055 | 100.77366 | 37910 ft | 454 kts | 169° |
| 2026-05-08 17:06 | 5.15818 | 100.78343 | 37909 ft | 453 kts | 169° |
| 2026-05-08 17:06 | 5.09591 | 100.79328 | 37907 ft | 453 kts | 169° |
| 2026-05-08 17:07 | 5.03399 | 100.80307 | 37908 ft | 453 kts | 169° |
| 2026-05-08 17:07 | 4.97127 | 100.81299 | 37900 ft | 453 kts | 169° |
| 2026-05-08 17:08 | 4.90942 | 100.82276 | 37901 ft | 453 kts | 169° |
| 2026-05-08 17:08 | 4.84714 | 100.83260 | 37898 ft | 453 kts | 169° |
| 2026-05-08 17:09 | 4.78491 | 100.84243 | 37908 ft | 453 kts | 169° |
| 2026-05-08 17:09 | 4.72259 | 100.85227 | 37911 ft | 453 kts | 169° |
| 2026-05-08 17:10 | 4.66032 | 100.86210 | 37914 ft | 453 kts | 169° |
| 2026-05-08 17:10 | 4.59798 | 100.87195 | 37916 ft | 453 kts | 169° |
| 2026-05-08 17:11 | 4.53589 | 100.88187 | 37846 ft | 449 kts | 169° |
| 2026-05-08 17:11 | 4.50505 | 100.88676 | 37472 ft | 448 kts | 169° |
| 2026-05-08 17:11 | 4.47434 | 100.89261 | 36810 ft | 449 kts | 163° |
| 2026-05-08 17:12 | 4.44452 | 100.90197 | 36090 ft | 449 kts | 157° |
| 2026-05-08 17:12 | 4.41596 | 100.91474 | 35358 ft | 450 kts | 152° |
| 2026-05-08 17:12 | 4.38778 | 100.92865 | 34623 ft | 453 kts | 153° |
| 2026-05-08 17:12 | 4.35977 | 100.94234 | 33905 ft | 455 kts | 153° |
| 2026-05-08 17:13 | 4.33121 | 100.95625 | 33111 ft | 457 kts | 153° |
| 2026-05-08 17:13 | 4.30260 | 100.97017 | 32343 ft | 458 kts | 153° |
| 2026-05-08 17:13 | 4.27395 | 100.98411 | 31581 ft | 459 kts | 153° |
| 2026-05-08 17:13 | 4.24513 | 100.99814 | 30801 ft | 460 kts | 153° |
| 2026-05-08 17:14 | 4.21633 | 101.01215 | 30081 ft | 461 kts | 153° |
| 2026-05-08 17:14 | 4.18766 | 101.02611 | 29442 ft | 457 kts | 153° |
| 2026-05-08 17:14 | 4.15921 | 101.03996 | 28850 ft | 452 kts | 153° |
| 2026-05-08 17:14 | 4.13111 | 101.05363 | 28244 ft | 448 kts | 153° |
| 2026-05-08 17:15 | 4.10315 | 101.06724 | 27650 ft | 444 kts | 152° |
| 2026-05-08 17:15 | 4.07553 | 101.08068 | 27066 ft | 440 kts | 152° |
| 2026-05-08 17:15 | 4.04816 | 101.09401 | 26502 ft | 436 kts | 152° |
| 2026-05-08 17:15 | 4.02098 | 101.10723 | 25939 ft | 432 kts | 152° |
| 2026-05-08 17:16 | 3.99408 | 101.12032 | 25391 ft | 428 kts | 152° |
| 2026-05-08 17:16 | 3.96735 | 101.13333 | 24856 ft | 425 kts | 152° |
| 2026-05-08 17:16 | 3.94087 | 101.14621 | 24334 ft | 422 kts | 152° |
| 2026-05-08 17:16 | 3.91459 | 101.15900 | 23810 ft | 418 kts | 152° |
| 2026-05-08 17:17 | 3.88853 | 101.17167 | 23262 ft | 415 kts | 152° |
| 2026-05-08 17:17 | 3.86266 | 101.18426 | 22702 ft | 411 kts | 152° |
| 2026-05-08 17:17 | 3.83707 | 101.19670 | 22126 ft | 407 kts | 152° |
| 2026-05-08 17:17 | 3.81171 | 101.20904 | 21580 ft | 403 kts | 152° |
| 2026-05-08 17:18 | 3.78662 | 101.22124 | 21038 ft | 400 kts | 152° |
| 2026-05-08 17:18 | 3.76210 | 101.23408 | 20498 ft | 395 kts | 147° |
| 2026-05-08 17:18 | 3.73895 | 101.24864 | 19964 ft | 391 kts | 146° |
| 2026-05-08 17:18 | 3.71607 | 101.26304 | 19495 ft | 387 kts | 146° |
| 2026-05-08 17:19 | 3.69332 | 101.27730 | 18964 ft | 384 kts | 146° |
| 2026-05-08 17:19 | 3.67073 | 101.29145 | 18455 ft | 381 kts | 146° |
| 2026-05-08 17:19 | 3.64836 | 101.30546 | 17925 ft | 378 kts | 146° |
| 2026-05-08 17:19 | 3.62614 | 101.31937 | 17368 ft | 375 kts | 146° |
| 2026-05-08 17:20 | 3.60438 | 101.33301 | 16820 ft | 372 kts | 146° |
| 2026-05-08 17:20 | 3.58243 | 101.34675 | 16287 ft | 370 kts | 147° |
| 2026-05-08 17:20 | 3.56072 | 101.36035 | 15760 ft | 367 kts | 147° |
| 2026-05-08 17:20 | 3.53914 | 101.37387 | 15242 ft | 364 kts | 147° |
| 2026-05-08 17:21 | 3.51765 | 101.38734 | 14735 ft | 362 kts | 147° |
| 2026-05-08 17:21 | 3.49638 | 101.40066 | 14242 ft | 360 kts | 147° |
| 2026-05-08 17:21 | 3.47525 | 101.41386 | 13761 ft | 357 kts | 149° |
| 2026-05-08 17:21 | 3.45301 | 101.42494 | 13204 ft | 356 kts | 158° |
| 2026-05-08 17:22 | 3.42952 | 101.43231 | 12656 ft | 354 kts | 167° |
| 2026-05-08 17:22 | 3.40536 | 101.43671 | 12140 ft | 352 kts | 170° |
| 2026-05-08 17:22 | 3.38949 | 101.43948 | 11804 ft | 350 kts | 169° |
| 2026-05-08 17:22 | 3.37749 | 101.44161 | 11550 ft | 349 kts | 169° |
| 2026-05-08 17:23 | 3.36342 | 101.44413 | 11265 ft | 348 kts | 169° |
| 2026-05-08 17:23 | 3.33940 | 101.44846 | 10773 ft | 345 kts | 169° |
| 2026-05-08 17:23 | 3.31607 | 101.45266 | 10310 ft | 343 kts | 170° |
| 2026-05-08 17:23 | 3.29267 | 101.45687 | 9854 ft | 341 kts | 170° |
| 2026-05-08 17:24 | 3.26935 | 101.46105 | 9297 ft | 340 kts | 170° |
| 2026-05-08 17:24 | 3.24612 | 101.46522 | 8762 ft | 339 kts | 170° |
| 2026-05-08 17:24 | 3.22299 | 101.46936 | 8221 ft | 338 kts | 170° |
| 2026-05-08 17:24 | 3.19986 | 101.47351 | 7698 ft | 336 kts | 170° |
| 2026-05-08 17:25 | 3.17685 | 101.47763 | 7179 ft | 335 kts | 170° |
| 2026-05-08 17:25 | 3.15397 | 101.48173 | 6672 ft | 334 kts | 170° |
| 2026-05-08 17:25 | 3.13111 | 101.48583 | 6198 ft | 331 kts | 170° |
| 2026-05-08 17:25 | 3.10881 | 101.48984 | 5753 ft | 322 kts | 170° |
| 2026-05-08 17:26 | 3.08722 | 101.49371 | 5315 ft | 310 kts | 171° |
| 2026-05-08 17:26 | 3.06647 | 101.49743 | 4878 ft | 300 kts | 171° |
| 2026-05-08 17:26 | 3.04688 | 101.50095 | 4467 ft | 291 kts | 171° |
| 2026-05-08 17:26 | 3.02739 | 101.50599 | 4040 ft | 290 kts | 161° |
| 2026-05-08 17:27 | 3.00880 | 101.51383 | 3606 ft | 290 kts | 158° |
| 2026-05-08 17:27 | 2.99390 | 101.52022 | 3265 ft | 289 kts | 158° |
| 2026-05-08 17:27 | 2.97548 | 101.52805 | 2814 ft | 284 kts | 158° |
| 2026-05-08 17:27 | 2.95797 | 101.53547 | 2578 ft | 268 kts | 159° |
| 2026-05-08 17:28 | 2.94147 | 101.54280 | 2498 ft | 253 kts | 155° |
| 2026-05-08 17:28 | 2.92608 | 101.55138 | 2498 ft | 253 kts | 150° |
| 2026-05-08 17:28 | 2.91188 | 101.56054 | 2489 ft | 229 kts | 148° |
| 2026-05-08 17:28 | 2.89949 | 101.56887 | 2484 ft | 202 kts | 148° |
| 2026-05-08 17:29 | 2.88777 | 101.57672 | 2502 ft | 202 kts | 148° |
| 2026-05-08 17:29 | 2.87620 | 101.58452 | 2494 ft | 201 kts | 148° |
| 2026-05-08 17:29 | 2.86459 | 101.59234 | 2494 ft | 201 kts | 148° |
| 2026-05-08 17:29 | 2.85299 | 101.60016 | 2497 ft | 200 kts | 148° |
| 2026-05-08 17:30 | 2.84200 | 101.60760 | 2390 ft | 183 kts | 148° |
| 2026-05-08 17:30 | 2.83176 | 101.61448 | 2175 ft | 168 kts | 148° |
| 2026-05-08 17:30 | 2.82258 | 101.62067 | 1961 ft | 151 kts | 148° |
| 2026-05-08 17:30 | 2.81428 | 101.62625 | 1774 ft | 138 kts | 148° |
| 2026-05-08 17:31 | 2.80624 | 101.63167 | 1600 ft | 139 kts | 148° |
| 2026-05-08 17:31 | 2.79822 | 101.63707 | 1418 ft | 138 kts | 147° |
| 2026-05-08 17:31 | 2.79024 | 101.64242 | 1239 ft | 138 kts | 147° |
| 2026-05-08 17:31 | 2.78226 | 101.64772 | 1054 ft | 137 kts | 147° |
| 2026-05-08 17:32 | 2.77432 | 101.65299 | 885 ft | 137 kts | 147° |
| 2026-05-08 17:32 | 2.76633 | 101.65824 | 734 ft | 138 kts | 146° |
| 2026-05-08 17:32 | 2.75840 | 101.66341 | 602 ft | 138 kts | 146° |
| 2026-05-08 17:32 | 2.75056 | 101.66882 | 454 ft | 137 kts | 141° |
| 2026-05-08 17:33 | 2.74290 | 101.67432 | 247 ft | 136 kts | 145° |
| 2026-05-08 17:33 | 2.73504 | 101.67955 | 51 ft | 134 kts | 144° |
| 2026-05-08 17:33 | 2.72842 | 101.68408 | 39 ft | 80 kts | 147° |
| 2026-05-08 17:33 | 2.72578 | 101.68585 | 38 ft | 34 kts | 146° |
| 2026-05-08 17:34 | 2.72397 | 101.68706 | 37 ft | 31 kts | 146° |
| 2026-05-08 17:34 | 2.72226 | 101.68830 | 37 ft | 30 kts | 139° |
| 2026-05-08 17:34 | 2.72108 | 101.68985 | 38 ft | 20 kts | 118° |
| 2026-05-08 17:34 | 2.72116 | 101.69072 | 39 ft | 12 kts | 25° |
| 2026-05-08 17:35 | 2.72194 | 101.69051 | 39 ft | 13 kts | 327° |
| 2026-05-08 17:35 | 2.72282 | 101.68994 | 38 ft | 16 kts | 326° |
| 2026-05-08 17:35 | 2.72384 | 101.68924 | 38 ft | 19 kts | 326° |
| 2026-05-08 17:35 | 2.72501 | 101.68846 | 38 ft | 21 kts | 326° |
| 2026-05-08 17:36 | 2.72630 | 101.68759 | 38 ft | 23 kts | 326° |
| 2026-05-08 17:36 | 2.72769 | 101.68665 | 38 ft | 25 kts | 326° |
| 2026-05-08 17:36 | 2.72913 | 101.68569 | 38 ft | 24 kts | 327° |
| 2026-05-08 17:36 | 2.73048 | 101.68478 | 38 ft | 22 kts | 325° |
| 2026-05-08 17:37 | 2.73169 | 101.68397 | 38 ft | 20 kts | 327° |
| 2026-05-08 17:37 | 2.73277 | 101.68323 | 38 ft | 18 kts | 325° |
| 2026-05-08 17:37 | 2.73374 | 101.68258 | 36 ft | 16 kts | 326° |
| 2026-05-08 17:37 | 2.73454 | 101.68204 | 37 ft | 11 kts | 326° |
| 2026-05-08 17:38 | 2.73517 | 101.68205 | 37 ft | 9 kts | 41° |
| 2026-05-08 17:38 | 2.73559 | 101.68243 | 39 ft | 7 kts | 18° |
| 2026-05-08 17:38 | 2.73606 | 101.68231 | 39 ft | 8 kts | 326° |
| 2026-05-08 17:38 | 2.73660 | 101.68198 | 39 ft | 10 kts | 339° |
| 2026-05-08 17:39 | 2.73711 | 101.68236 | 41 ft | 10 kts | 58° |
| 2026-05-08 17:39 | 2.73751 | 101.68297 | 41 ft | 11 kts | 56° |
| 2026-05-08 17:39 | 2.73798 | 101.68368 | 41 ft | 13 kts | 56° |
| 2026-05-08 17:39 | 2.73850 | 101.68449 | 42 ft | 15 kts | 58° |
| 2026-05-08 17:40 | 2.73912 | 101.68537 | 42 ft | 16 kts | 55° |
| 2026-05-08 17:40 | 2.73978 | 101.68633 | 42 ft | 17 kts | 56° |
| 2026-05-08 17:40 | 2.74046 | 101.68734 | 42 ft | 17 kts | 56° |
| 2026-05-08 17:40 | 2.74109 | 101.68828 | 42 ft | 15 kts | 56° |
| 2026-05-08 17:41 | 2.74165 | 101.68912 | 42 ft | 14 kts | 55° |
| 2026-05-08 17:41 | 2.74210 | 101.68981 | 42 ft | 7 kts | 72° |
| 2026-05-08 17:41 | 2.74180 | 101.69016 | 42 ft | 7 kts | 149° |
| 2026-05-08 17:41 | 2.74152 | 101.69035 | 42 ft | 3 kts | 146° |
| 2026-05-08 17:42 | 2.74148 | 101.69037 | 42 ft | 0 kts | 146° |